Главная страница
METAR-TAF:

METAR-TAF

Аэропорты :

Челябинск, Россия

широта: 55-10N, долгота: 061-24E, высота над уровнем моря: 234 м

Текущие метеонаблюдения

Эта сводка был подготовлена 20 минут назад, в 09:00 UTC
Ветер 2 Узел от северный
Температура -10°C
Влажность 79%
Давление 1025 hPa
Видимость: 3200 м
дымка, дым

METAR: USCC 170900Z 36001MPS 3200 BR FU NSC M10/M13 Q1025 R27/390045 TEMPO 1200 BR FU VV005 RMK QFE749

Время: 14:20 (09:20 UTC)

Прогноз

Эта сводка был подготовлена 1 час и 20 минут назад, в 08:00 UTC
Прогноз действительный с 17-го 09 UTC до 18-го 09 UTC
Ветер 6 Узел от южный-юго-западный
Видимость: 3100 м
Отдельные облака на высоте 1100 фута
дымка, дым
временами
С 17-го 09 UTC до 18-го 03 UTC
Ветер 2 Узел от южный
Видимость: 2100 м
дымка, дым

TAF: USCC 170800Z 1709/1809 21003MPS 3100 BR FU SCT011 TEMPO 1709/1803 18001MPS 2100 BR FU

Метеонаблюдения и прогнозы для более 4000 аэропортов (сводки METAR и TAF).

Имеющиеся станции представлены на карте желтыми и красными точками.

Чтобы увидеть название станции, наведите на нее мышь.

Затем щелкните, чтобы увидеть метеонаблюдения и метеопрогнозы.

Управление картой: чтобы увеличить масштаб, щелкните зеленые кнопки с черным крестиком; чтобы уменьшить масштаб, щелкните зеленую кнопку с тире; для просмотра соседних карт щелкайте зеленые стрелки.


METAR-TAF: